Time;durP1;ratioP1;P1;durP2;ratioP2;P2;SDS_P1;SDS_P2;PMS_P1;PMS_P2;Temp;Humidity;BMP_temperature;BMP_pressure;BME280_temperature;BME280_humidity;BME280_pressure;Samples;Min_cycle;Max_cycle;Signal;HPM_P1;HPM_P2
2022/09/16 00:00:43;;;;;;;3.85;1.17;;;13.70;99.90;;;;;;6248309;22;20062;-83
2022/09/16 00:03:13;;;;;;;6.03;1.55;;;13.70;99.90;;;;;;6274492;22;20023;-83
2022/09/16 00:05:47;;;;;;;4.90;1.17;;;13.70;99.90;;;;;;6249326;22;20020;-83
2022/09/16 00:08:13;;;;;;;4.15;1.10;;;13.70;99.90;;;;;;6223522;22;20046;-83
2022/09/16 00:10:39;;;;;;;5.60;1.50;;;13.70;99.90;;;;;;6248501;22;20397;-83
2022/09/16 00:13:09;;;;;;;4.53;1.15;;;13.70;99.90;;;;;;6222059;22;20073;-85
2022/09/16 00:15:35;;;;;;;5.20;1.50;;;13.60;99.90;;;;;;6249084;22;20058;-83
2022/09/16 00:18:01;;;;;;;6.68;1.30;;;13.60;99.90;;;;;;6246287;22;20078;-83
2022/09/16 00:20:29;;;;;;;10.10;1.40;;;13.50;99.90;;;;;;6272238;22;20643;-83
2022/09/16 00:22:57;;;;;;;6.97;1.60;;;13.40;99.90;;;;;;6273589;22;20094;-83
2022/09/16 00:25:23;;;;;;;9.07;1.98;;;13.30;99.90;;;;;;6223997;22;20043;-83
2022/09/16 00:27:49;;;;;;;5.78;1.45;;;13.20;99.90;;;;;;6248307;22;20453;-84
2022/09/16 00:30:15;;;;;;;5.57;1.50;;;13.30;99.90;;;;;;6246111;22;20080;-83
2022/09/16 00:32:41;;;;;;;10.05;1.63;;;13.20;99.90;;;;;;6247819;22;20030;-84
2022/09/16 00:35:07;;;;;;;7.88;1.73;;;13.20;99.90;;;;;;6250845;22;20023;-84
2022/09/16 00:37:33;;;;;;;4.32;1.15;;;13.40;99.90;;;;;;6255336;22;20016;-83
2022/09/16 00:40:01;;;;;;;7.50;1.60;;;13.20;99.90;;;;;;6281738;22;20079;-83
2022/09/16 00:42:27;;;;;;;4.68;1.10;;;13.30;99.90;;;;;;6256770;22;20232;-84
2022/09/16 00:45:02;;;;;;;4.22;1.35;;;13.20;99.90;;;;;;6259516;22;20065;-82
2022/09/16 00:47:33;;;;;;;6.07;1.08;;;13.20;99.90;;;;;;6262383;22;20020;-83
2022/09/16 00:50:06;;;;;;;5.38;1.10;;;13.30;99.90;;;;;;6260217;22;20023;-83
2022/09/16 00:52:33;;;;;;;4.70;1.10;;;13.30;99.90;;;;;;6262191;22;20053;-84
2022/09/16 00:55:02;;;;;;;8.75;1.58;;;13.40;99.90;;;;;;6289737;22;20030;-83
2022/09/16 00:57:30;;;;;;;4.25;1.20;;;13.40;99.90;;;;;;6261760;22;20022;-83
2022/09/16 00:59:57;;;;;;;5.25;1.45;;;13.60;99.90;;;;;;6265100;22;20012;-81
2022/09/16 01:02:23;;;;;;;7.88;1.80;;;13.60;99.90;;;;;;6237627;22;20027;-83
2022/09/16 01:04:56;;;;;;;6.60;1.25;;;13.60;99.90;;;;;;6290298;22;20019;-84
2022/09/16 01:07:30;;;;;;;6.93;1.52;;;13.70;99.90;;;;;;6262326;22;20027;-83
2022/09/16 01:09:56;;;;;;;7.40;1.30;;;13.70;99.90;;;;;;6262851;22;20014;-83
2022/09/16 01:12:23;;;;;;;6.15;1.25;;;13.70;99.90;;;;;;6260739;22;20027;-83
2022/09/16 01:14:55;;;;;;;5.05;1.10;;;13.60;99.90;;;;;;6262662;22;20015;-82
2022/09/16 01:17:59;;;;;;;4.03;1.02;;;12.90;99.90;;;;;;6262965;22;20031;-82
2022/09/16 01:20:53;;;;;;;5.00;1.10;;;13.70;99.90;;;;;;6261390;22;20015;-82
2022/09/16 01:23:41;;;;;;;1.85;0.73;;;13.70;99.90;;;;;;6263318;22;20089;-83
2022/09/16 01:26:21;;;;;;;2.92;0.70;;;13.70;99.90;;;;;;6287697;22;20034;-82
2022/09/16 01:29:31;;;;;;;4.18;1.10;;;13.70;99.90;;;;;;6260523;22;20071;-83
2022/09/16 01:32:13;;;;;;;7.53;1.42;;;13.70;99.90;;;;;;6265118;22;20019;-83
2022/09/16 01:35:23;;;;;;;7.25;1.63;;;13.30;99.90;;;;;;6278645;22;20039;-82
2022/09/16 01:38:01;;;;;;;5.88;1.35;;;13.70;99.90;;;;;;6236660;22;20205;-83
2022/09/16 01:40:33;;;;;;;7.93;1.70;;;13.90;99.90;;;;;;6254520;22;20015;-82
2022/09/16 01:43:24;;;;;;;6.65;1.20;;;13.70;99.90;;;;;;6288611;22;20072;-83
2022/09/16 01:45:57;;;;;;;6.40;1.30;;;13.70;99.90;;;;;;6263035;22;20019;-83
2022/09/16 01:48:40;;;;;;;4.82;1.25;;;13.70;99.90;;;;;;6260314;22;20030;-83
2022/09/16 01:51:16;;;;;;;9.20;1.30;;;13.70;99.90;;;;;;6254087;22;20041;-82
2022/09/16 01:53:57;;;;;;;;;;;13.60;99.90;;;;;;6249057;22;20023;-82
2022/09/16 01:56:50;;;;;;;8.63;1.42;;;13.60;99.90;;;;;;6272157;22;19923;-82
2022/09/16 01:59:25;;;;;;;7.57;1.50;;;13.60;99.90;;;;;;6271925;22;20347;-83
2022/09/16 02:02:02;;;;;;;8.15;1.23;;;13.60;99.90;;;;;;6272429;22;20023;-84
2022/09/16 02:04:34;;;;;;;9.13;1.58;;;13.60;99.90;;;;;;6271844;22;20015;-83
2022/09/16 02:07:03;;;;;;;7.95;1.40;;;13.70;99.90;;;;;;6247809;22;20051;-83
2022/09/16 02:09:36;;;;;;;5.82;1.40;;;13.70;99.90;;;;;;6246779;22;20026;-83
2022/09/16 02:12:05;;;;;;;5.78;1.20;;;13.70;99.90;;;;;;6272293;22;20019;-83
2022/09/16 02:14:44;;;;;;;6.10;1.30;;;13.70;99.90;;;;;;6246312;22;20041;-82
2022/09/16 02:17:15;;;;;;;7.53;1.42;;;13.70;99.90;;;;;;6273057;22;20077;-83
2022/09/16 02:19:58;;;;;;;7.90;1.65;;;13.70;99.90;;;;;;6272903;22;20089;-82
2022/09/16 02:22:40;;;;;;;7.28;1.52;;;13.80;99.90;;;;;;6246770;22;20026;-82
2022/09/16 02:25:09;;;;;;;4.47;1.40;;;13.80;99.90;;;;;;6247639;22;20026;-83
2022/09/16 02:27:38;;;;;;;7.07;1.50;;;13.70;99.90;;;;;;6246149;22;20207;-82
2022/09/16 02:30:10;;;;;;;4.50;1.50;;;13.70;99.90;;;;;;6247038;22;20023;-83
2022/09/16 02:32:49;;;;;;;4.40;1.33;;;13.70;99.90;;;;;;6271884;22;20011;-82
2022/09/16 02:35:18;;;;;;;10.20;2.03;;;13.70;99.90;;;;;;6273238;22;20022;-83
2022/09/16 02:38:11;;;;;;;7.07;1.30;;;13.70;99.90;;;;;;6246831;22;20061;-82
2022/09/16 02:40:53;;;;;;;5.80;1.10;;;13.70;99.90;;;;;;6248747;22;20485;-82
2022/09/16 02:43:19;;;;;;;5.97;1.15;;;13.60;99.90;;;;;;6247384;22;20019;-83
2022/09/16 02:45:56;;;;;;;7.35;1.50;;;13.60;99.90;;;;;;6272266;22;20019;-82
2022/09/16 02:48:57;;;;;;;5.70;1.20;;;13.60;99.90;;;;;;6272385;22;20019;-82
2022/09/16 02:51:50;;;;;;;9.88;1.75;;;13.60;99.90;;;;;;6245150;22;20058;-82
2022/09/16 02:54:21;;;;;;;4.55;1.30;;;13.60;99.90;;;;;;6271495;22;20160;-83
2022/09/16 02:56:47;;;;;;;6.82;1.50;;;13.60;99.90;;;;;;6247642;22;20094;-83
2022/09/16 02:59:14;;;;;;;6.07;1.27;;;13.50;99.90;;;;;;6221609;22;20050;-82
2022/09/16 03:01:43;;;;;;;5.75;1.35;;;13.50;99.90;;;;;;6220247;22;20026;-83
2022/09/16 03:04:11;;;;;;;5.30;1.30;;;13.40;99.90;;;;;;6246879;22;20016;-83
2022/09/16 03:06:38;;;;;;;6.32;1.90;;;13.40;99.90;;;;;;6221327;22;20015;-83
2022/09/16 03:09:07;;;;;;;4.50;1.38;;;13.30;99.90;;;;;;6246004;22;20454;-83
2022/09/16 03:11:51;;;;;;;4.85;1.33;;;13.30;99.90;;;;;;6245830;22;20018;-83
2022/09/16 03:14:29;;;;;;;5.03;1.55;;;13.40;99.90;;;;;;6246347;22;20023;-84
2022/09/16 03:17:19;;;;;;;5.70;1.50;;;13.40;99.90;;;;;;6246505;22;20016;-83
2022/09/16 03:20:10;;;;;;;5.88;1.38;;;13.40;99.90;;;;;;6246498;22;20108;-82
2022/09/16 03:23:03;;;;;;;8.10;1.60;;;13.50;99.90;;;;;;6253389;22;20019;-86
2022/09/16 03:25:43;;;;;;;6.32;2.13;;;13.50;99.90;;;;;;6251012;22;20320;-85
2022/09/16 03:28:24;;;;;;;7.00;1.58;;;13.60;99.90;;;;;;6249771;22;20019;-84
2022/09/16 03:31:17;;;;;;;8.90;1.50;;;13.60;99.90;;;;;;6251047;22;20343;-85
2022/09/16 03:33:56;;;;;;;7.78;1.73;;;13.60;99.90;;;;;;6249813;22;20022;-85
2022/09/16 03:36:26;;;;;;;10.48;2.58;;;13.60;99.90;;;;;;6250602;22;20102;-87
2022/09/16 03:38:57;;;;;;;8.32;1.77;;;13.60;99.90;;;;;;6250792;22;20026;-84
2022/09/16 03:41:23;;;;;;;10.75;1.83;;;13.60;99.90;;;;;;6249919;22;20022;-84
2022/09/16 03:43:57;;;;;;;8.57;1.52;;;13.70;99.90;;;;;;6224934;22;20098;-84
2022/09/16 03:46:31;;;;;;;6.90;1.55;;;13.70;99.90;;;;;;6250834;22;20456;-84
2022/09/16 03:48:59;;;;;;;6.45;1.60;;;13.60;99.90;;;;;;6276816;22;20012;-88
2022/09/16 03:51:35;;;;;;;4.70;1.35;;;13.80;99.90;;;;;;6250589;22;20042;-85
2022/09/16 03:54:16;;;;;;;8.73;1.65;;;13.60;99.90;;;;;;6277167;22;20030;-86
2022/09/16 03:56:44;;;;;;;5.43;1.30;;;13.50;99.90;;;;;;6228265;22;20122;-86
2022/09/16 03:59:16;;;;;;;6.75;1.70;;;13.50;99.90;;;;;;6251253;22;20015;-86
2022/09/16 04:01:42;;;;;;;3.33;1.08;;;13.40;99.90;;;;;;6225659;22;20027;-85
2022/09/16 04:04:28;;;;;;;4.82;1.20;;;13.40;99.90;;;;;;6277166;22;20019;-85
2022/09/16 04:06:56;;;;;;;7.20;1.20;;;13.40;99.90;;;;;;6230391;22;20026;-84
2022/09/16 04:09:30;;;;;;;8.07;1.45;;;13.40;99.90;;;;;;6250895;22;20019;-87
2022/09/16 04:11:58;;;;;;;6.72;1.23;;;13.50;99.90;;;;;;6225336;22;20018;-86
2022/09/16 04:14:24;;;;;;;3.45;0.93;;;13.80;99.90;;;;;;6224329;22;20085;-84
2022/09/16 04:16:56;;;;;;;12.50;1.60;;;13.50;99.90;;;;;;6250245;22;20019;-86
2022/09/16 04:19:35;;;;;;;5.15;1.08;;;13.50;99.90;;;;;;6248619;22;20511;-87
2022/09/16 04:22:03;;;;;;;7.13;1.42;;;13.40;99.90;;;;;;6247892;22;20061;-86
2022/09/16 04:24:32;;;;;;;5.07;1.13;;;12.70;99.90;;;;;;6273398;22;20019;-85
2022/09/16 04:27:10;;;;;;;9.18;1.67;;;13.50;99.90;;;;;;6249735;22;20440;-85
2022/09/16 04:29:40;;;;;;;6.78;1.10;;;13.50;99.90;;;;;;6248018;22;20030;-84
2022/09/16 04:32:23;;;;;;;;;;;;;;;;;;;;;
2022/09/16 04:34:51;;;;;;;4.70;1.05;;;13.40;99.90;;;;;;6251441;22;20011;-85
2022/09/16 04:37:20;;;;;;;7.15;1.30;;;13.40;99.90;;;;;;6249442;22;20015;-84
2022/09/16 04:40:06;;;;;;;5.68;1.55;;;13.40;99.90;;;;;;6249632;22;20011;-84
2022/09/16 04:42:35;;;;;;;7.60;1.60;;;13.20;99.90;;;;;;6227695;22;20034;-86
2022/09/16 04:45:04;;;;;;;7.32;1.50;;;13.40;99.90;;;;;;6250720;22;20022;-87
2022/09/16 04:47:45;;;;;;;7.28;1.30;;;13.30;99.90;;;;;;6250159;22;20434;-87
2022/09/16 04:50:14;;;;;;;7.72;1.60;;;13.30;99.90;;;;;;6250191;22;20012;-85
2022/09/16 04:52:47;;;;;;;8.98;1.27;;;13.50;99.90;;;;;;6249160;22;20026;-85
2022/09/16 04:55:16;;;;;;;9.48;1.67;;;13.40;99.90;;;;;;6249741;22;20038;-85
2022/09/16 04:57:44;;;;;;;10.48;1.38;;;13.40;99.90;;;;;;6246870;22;20020;-87
2022/09/16 05:00:10;;;;;;;6.88;1.38;;;13.50;99.90;;;;;;6248999;22;20023;-85
2022/09/16 05:02:38;;;;;;;7.22;1.83;;;13.50;99.90;;;;;;6275805;22;20335;-84
2022/09/16 05:05:06;;;;;;;6.03;1.50;;;13.50;99.90;;;;;;6250723;22;20065;-84
2022/09/16 05:07:32;;;;;;;11.10;2.50;;;13.50;99.90;;;;;;6247808;22;20019;-83
2022/09/16 05:09:58;;;;;;;7.00;1.40;;;13.60;99.90;;;;;;6244959;22;20084;-82
2022/09/16 05:12:23;;;;;;;12.05;2.15;;;13.50;99.90;;;;;;6219959;22;20050;-82
2022/09/16 05:14:49;;;;;;;10.65;1.73;;;13.50;99.90;;;;;;6245226;22;20438;-82
2022/09/16 05:17:15;;;;;;;9.55;1.70;;;13.50;99.90;;;;;;6246194;22;20015;-82
2022/09/16 05:19:40;;;;;;;9.52;1.67;;;13.50;99.90;;;;;;6270600;22;20055;-82
2022/09/16 05:22:06;;;;;;;5.80;1.40;;;13.60;99.90;;;;;;6218574;22;20022;-82
2022/09/16 05:24:35;;;;;;;7.68;1.60;;;13.60;99.90;;;;;;6220606;22;20030;-82
2022/09/16 05:27:01;;;;;;;8.60;1.70;;;13.60;99.90;;;;;;6244460;22;20023;-81
2022/09/16 05:29:28;;;;;;;10.82;1.50;;;13.60;99.90;;;;;;6246268;22;20011;-84
2022/09/16 05:31:53;;;;;;;8.63;1.52;;;13.60;99.90;;;;;;6219775;22;20465;-81
2022/09/16 05:34:27;;;;;;;5.15;1.20;;;13.60;99.90;;;;;;6248122;22;20408;-81
2022/09/16 05:36:54;;;;;;;5.30;1.08;;;13.60;99.90;;;;;;6246323;22;20023;-82
2022/09/16 05:39:21;;;;;;;5.07;1.25;;;13.50;99.90;;;;;;6247013;22;20090;-81
2022/09/16 05:41:47;;;;;;;5.47;1.05;;;13.50;99.90;;;;;;6249752;22;20019;-82
2022/09/16 05:44:13;;;;;;;5.03;1.30;;;13.50;99.90;;;;;;6249123;22;20026;-82
2022/09/16 05:46:40;;;;;;;3.75;1.17;;;13.50;99.90;;;;;;6275146;22;20054;-82
2022/09/16 05:49:07;;;;;;;5.70;1.48;;;13.50;99.90;;;;;;6225027;22;20350;-81
2022/09/16 05:51:33;;;;;;;8.02;1.30;;;13.50;99.90;;;;;;6250444;22;20460;-82
2022/09/16 05:53:58;;;;;;;6.53;1.65;;;13.40;99.90;;;;;;6249713;22;20060;-82
2022/09/16 05:56:27;;;;;;;5.07;1.15;;;13.50;99.90;;;;;;6250328;22;20454;-82
2022/09/16 05:58:55;;;;;;;10.60;1.50;;;13.60;99.90;;;;;;6247104;22;20320;-81
2022/09/16 06:01:31;;;;;;;9.23;1.63;;;13.60;99.90;;;;;;6246529;22;20128;-79
2022/09/16 06:03:59;;;;;;;9.82;2.17;;;13.60;99.90;;;;;;6246475;22;20015;-80
2022/09/16 06:06:30;;;;;;;6.55;1.33;;;13.60;99.90;;;;;;6248049;22;20026;-83
2022/09/16 06:08:59;;;;;;;5.65;1.50;;;13.60;99.90;;;;;;6248248;22;20041;-83
2022/09/16 06:11:26;;;;;;;8.65;1.75;;;13.50;99.90;;;;;;6246497;22;20080;-81
2022/09/16 06:13:56;;;;;;;5.35;1.23;;;13.50;99.90;;;;;;6222196;22;20027;-80
2022/09/16 06:16:26;;;;;;;7.47;1.50;;;13.50;99.90;;;;;;6246676;22;20031;-81
2022/09/16 06:18:53;;;;;;;11.57;1.65;;;13.60;99.90;;;;;;6271982;22;20445;-82
2022/09/16 06:21:20;;;;;;;6.05;1.42;;;13.60;99.90;;;;;;6272722;22;20094;-82
2022/09/16 06:23:46;;;;;;;6.22;1.45;;;13.80;99.90;;;;;;6246428;22;20061;-83
2022/09/16 06:26:18;;;;;;;5.78;1.45;;;13.80;99.90;;;;;;6249761;22;20015;-79
2022/09/16 06:28:47;;;;;;;5.47;1.15;;;13.90;99.90;;;;;;6250065;22;20027;-88
2022/09/16 06:31:16;;;;;;;6.13;1.27;;;14.20;99.90;;;;;;6248946;22;20015;-80
2022/09/16 06:33:57;;;;;;;5.68;1.40;;;13.80;99.90;;;;;;6250204;22;20015;-86
2022/09/16 06:36:52;;;;;;;5.88;1.20;;;13.70;99.90;;;;;;6251720;22;20508;-84
2022/09/16 06:39:23;;;;;;;10.30;1.92;;;13.70;99.90;;;;;;6238588;22;20097;-85
2022/09/16 06:41:57;;;;;;;8.52;1.77;;;13.70;99.90;;;;;;6226754;22;20027;-83
2022/09/16 06:44:23;;;;;;;8.55;1.75;;;13.70;99.90;;;;;;6252353;22;20066;-82
2022/09/16 06:46:59;;;;;;;12.77;1.73;;;13.60;99.90;;;;;;6251969;22;20046;-87
2022/09/16 06:49:28;;;;;;;9.20;1.80;;;13.90;99.90;;;;;;6254264;22;20015;-83
2022/09/16 06:52:02;;;;;;;7.88;1.58;;;13.80;99.90;;;;;;6250480;22;20015;-86
2022/09/16 06:54:57;;;;;;;6.18;1.52;;;13.70;99.90;;;;;;6252013;22;20019;-90
2022/09/16 06:57:23;;;;;;;4.78;1.15;;;13.60;99.90;;;;;;6242388;22;20019;-84
2022/09/16 06:59:50;;;;;;;6.90;1.40;;;13.80;99.90;;;;;;6250590;22;20023;-84
2022/09/16 07:02:23;;;;;;;5.45;1.60;;;13.90;99.90;;;;;;6275401;22;20023;-86
2022/09/16 07:04:49;;;;;;;7.93;1.27;;;13.30;99.90;;;;;;6248456;22;20098;-85
2022/09/16 07:07:14;;;;;;;5.50;1.58;;;14.10;99.90;;;;;;6247090;22;20054;-82
2022/09/16 07:09:40;;;;;;;9.23;1.70;;;14.20;99.90;;;;;;6246893;22;20509;-83
2022/09/16 07:12:06;;;;;;;8.70;1.80;;;14.20;99.90;;;;;;6273824;22;20015;-83
2022/09/16 07:14:32;;;;;;;12.77;2.38;;;14.30;99.90;;;;;;6250360;22;20019;-84
2022/09/16 07:16:59;;;;;;;10.27;1.92;;;14.50;99.90;;;;;;6250235;22;20406;-83
2022/09/16 07:19:25;;;;;;;9.32;1.73;;;14.60;99.90;;;;;;6250049;22;20019;-82
2022/09/16 07:21:51;;;;;;;9.48;1.58;;;14.70;99.90;;;;;;6274593;22;20027;-83
2022/09/16 07:24:17;;;;;;;8.13;1.88;;;14.70;99.90;;;;;;6275668;22;20022;-83
2022/09/16 07:26:44;;;;;;;6.43;1.77;;;14.70;99.90;;;;;;6249304;22;20053;-83
2022/09/16 07:29:12;;;;;;;8.65;1.95;;;14.70;99.90;;;;;;6250880;22;20025;-83
2022/09/16 07:31:38;;;;;;;9.25;1.90;;;14.60;99.90;;;;;;6249780;22;20015;-83
2022/09/16 07:34:06;;;;;;;7.13;2.47;;;14.60;99.90;;;;;;6250038;22;20019;-83
2022/09/16 07:36:37;;;;;;;10.52;1.92;;;14.60;99.90;;;;;;6249010;22;20382;-81
2022/09/16 07:39:06;;;;;;;8.52;1.70;;;14.70;99.90;;;;;;6250283;22;20465;-82
2022/09/16 07:41:33;;;;;;;6.88;1.73;;;14.80;99.90;;;;;;6274911;22;20042;-82
2022/09/16 07:44:00;;;;;;;10.32;1.83;;;15.10;99.90;;;;;;6274256;22;20022;-84
2022/09/16 07:46:29;;;;;;;8.93;1.98;;;15.30;99.90;;;;;;6224057;22;20030;-84
2022/09/16 07:48:57;;;;;;;11.05;2.40;;;15.50;99.90;;;;;;6246033;22;20026;-85
2022/09/16 07:51:25;;;;;;;7.00;1.20;;;15.70;99.90;;;;;;6247406;22;20062;-85
2022/09/16 07:54:01;;;;;;;7.10;1.77;;;15.80;99.90;;;;;;6271266;22;20599;-84
2022/09/16 07:56:28;;;;;;;7.70;1.50;;;15.90;99.90;;;;;;6272743;22;20518;-85
2022/09/16 07:58:54;;;;;;;7.22;1.40;;;15.90;99.90;;;;;;6246305;22;20068;-85
2022/09/16 08:01:21;;;;;;;8.45;1.35;;;16.10;99.90;;;;;;6247056;22;20389;-83
2022/09/16 08:03:47;;;;;;;7.80;1.65;;;16.20;99.90;;;;;;6243651;22;20030;-84
2022/09/16 08:06:14;;;;;;;9.25;1.88;;;16.30;99.90;;;;;;6243291;22;20417;-82
2022/09/16 08:08:40;;;;;;;5.82;1.25;;;16.40;99.90;;;;;;6268950;22;20487;-82
2022/09/16 08:11:07;;;;;;;5.57;1.42;;;16.60;99.90;;;;;;6242390;22;20102;-83
2022/09/16 08:13:35;;;;;;;9.13;1.60;;;16.80;99.90;;;;;;6242435;22;20114;-82
2022/09/16 08:16:06;;;;;;;7.13;1.70;;;17.00;99.90;;;;;;6239191;22;20030;-82
2022/09/16 08:18:32;;;;;;;6.03;1.50;;;17.10;99.90;;;;;;6266897;22;20030;-82
2022/09/16 08:21:14;;;;;;;5.82;1.60;;;17.10;99.90;;;;;;6240033;22;20150;-82
2022/09/16 08:23:40;;;;;;;5.57;1.90;;;17.00;99.90;;;;;;6269323;22;20405;-82
2022/09/16 08:26:08;;;;;;;15.20;2.33;;;16.80;99.90;;;;;;6241919;22;20446;-82
2022/09/16 08:28:34;;;;;;;6.13;1.80;;;16.70;99.90;;;;;;6267987;22;20019;-81
2022/09/16 08:31:00;;;;;;;6.40;1.83;;;16.70;99.90;;;;;;6269030;22;20106;-82
2022/09/16 08:33:27;;;;;;;5.78;1.48;;;16.60;99.90;;;;;;6269914;22;20057;-82
2022/09/16 08:36:00;;;;;;;7.43;2.00;;;16.90;99.90;;;;;;6243041;22;20072;-81
2022/09/16 08:38:25;;;;;;;6.57;1.40;;;17.00;99.90;;;;;;6243413;22;20019;-83
2022/09/16 08:41:00;;;;;;;5.95;1.35;;;17.20;99.90;;;;;;6243038;22;20023;-82
2022/09/16 08:43:42;;;;;;;6.72;1.80;;;17.30;99.90;;;;;;6268024;22;20019;-83
2022/09/16 08:46:11;;;;;;;6.40;1.60;;;17.60;99.50;;;;;;6266626;22;20065;-82
2022/09/16 08:48:57;;;;;;;5.50;1.30;;;17.80;99.40;;;;;;6268392;22;20023;-86
2022/09/16 08:51:28;;;;;;;7.47;1.73;;;17.90;99.00;;;;;;6247646;22;20026;-84
2022/09/16 08:54:26;;;;;;;7.43;1.73;;;18.20;98.90;;;;;;6270987;22;20019;-87
2022/09/16 08:56:57;;;;;;;8.38;2.03;;;18.30;98.80;;;;;;6238061;22;20050;-86
2022/09/16 08:59:27;;;;;;;11.05;2.28;;;18.30;99.50;;;;;;6247699;22;20023;-82
2022/09/16 09:02:24;;;;;;;8.93;2.10;;;18.10;99.90;;;;;;6243116;22;20031;-83
2022/09/16 09:04:52;;;;;;;9.48;1.92;;;17.90;99.80;;;;;;6266173;22;20019;-83
2022/09/16 09:07:45;;;;;;;7.07;1.65;;;18.10;99.90;;;;;;6242183;22;20093;-83
2022/09/16 09:10:14;;;;;;;7.32;1.90;;;18.30;99.50;;;;;;6245082;22;20018;-83
2022/09/16 09:13:12;;;;;;;6.38;1.70;;;18.20;99.30;;;;;;6269316;22;20088;-81
2022/09/16 09:15:49;;;;;;;7.63;2.00;;;18.00;99.10;;;;;;6268348;22;20706;-83
2022/09/16 09:19:06;;;;;;;7.75;1.70;;;18.90;99.40;;;;;;6244460;22;20079;-83
2022/09/16 09:22:04;;;;;;;9.32;1.85;;;18.00;99.30;;;;;;6232338;22;20019;-83
2022/09/16 09:25:12;;;;;;;11.05;2.22;;;18.00;99.10;;;;;;6301737;22;20354;-91
2022/09/16 09:27:56;;;;;;;9.27;1.58;;;18.00;98.20;;;;;;6245069;22;20022;-83
2022/09/16 09:30:27;;;;;;;9.52;1.95;;;17.90;99.00;;;;;;6242897;22;20016;-83
2022/09/16 09:33:19;;;;;;;6.95;1.60;;;18.10;99.50;;;;;;6268598;22;20026;-83
2022/09/16 09:36:22;;;;;;;9.80;1.50;;;18.40;98.80;;;;;;6245626;22;20011;-83
2022/09/16 09:39:01;;;;;;;7.63;1.60;;;18.50;98.20;;;;;;6245217;22;20355;-83
2022/09/16 09:41:40;;;;;;;5.95;1.67;;;18.90;98.20;;;;;;6246824;22;20050;-84
2022/09/16 09:44:12;;;;;;;8.48;1.65;;;19.10;98.20;;;;;;6248491;22;20016;-83
2022/09/16 09:46:47;;;;;;;6.95;1.23;;;19.30;98.30;;;;;;6248337;22;20072;-83
2022/09/16 09:49:50;;;;;;;7.25;1.35;;;19.20;97.90;;;;;;6249470;22;20023;-84
2022/09/16 09:52:18;;;;;;;4.97;1.40;;;18.70;97.40;;;;;;6247772;22;20025;-84
2022/09/16 09:54:50;;;;;;;6.75;1.70;;;19.10;98.50;;;;;;6247235;22;20031;-85
2022/09/16 09:57:41;;;;;;;6.47;1.55;;;18.50;97.70;;;;;;6271572;22;20091;-85
2022/09/16 10:00:14;;;;;;;6.15;1.77;;;18.50;98.10;;;;;;6243701;22;20065;-85
2022/09/16 10:02:43;;;;;;;8.05;1.85;;;17.50;97.80;;;;;;6252080;22;20027;-83
2022/09/16 10:05:21;;;;;;;8.20;2.00;;;18.80;98.20;;;;;;6271248;22;20024;-84
2022/09/16 10:07:54;;;;;;;6.95;1.40;;;18.90;97.90;;;;;;6246483;22;20023;-83
2022/09/16 10:10:26;;;;;;;6.55;1.63;;;19.10;97.10;;;;;;6248847;22;20070;-85
2022/09/16 10:13:09;;;;;;;5.88;1.10;;;19.10;96.70;;;;;;6250226;22;20023;-87
2022/09/16 10:15:36;;;;;;;7.05;1.40;;;19.20;96.80;;;;;;6249404;22;20023;-83
2022/09/16 10:18:14;;;;;;;6.50;1.40;;;19.30;97.50;;;;;;6249697;22;20023;-87
2022/09/16 10:20:53;;;;;;;4.95;1.23;;;20.40;96.70;;;;;;6250255;22;20015;-84
2022/09/16 10:23:26;;;;;;;7.03;1.85;;;19.40;95.90;;;;;;6249910;22;20026;-84
2022/09/16 10:26:33;;;;;;;4.97;1.33;;;19.30;95.50;;;;;;6249876;22;20080;-90
2022/09/16 10:29:42;;;;;;;6.90;1.60;;;19.10;96.30;;;;;;6129187;23;20668;-87
2022/09/16 10:32:18;;;;;;;10.38;1.85;;;19.20;96.70;;;;;;6275577;22;20023;-86
2022/09/16 10:34:53;;;;;;;5.75;1.40;;;18.90;97.40;;;;;;6250411;22;20102;-87
2022/09/16 10:37:19;;;;;;;6.05;1.30;;;18.80;97.50;;;;;;6225050;22;20030;-85
2022/09/16 10:39:54;;;;;;;4.72;1.30;;;18.80;97.40;;;;;;6250161;22;20019;-84
2022/09/16 10:42:30;;;;;;;6.13;1.20;;;18.90;96.60;;;;;;6244093;22;20056;-83
2022/09/16 10:45:04;;;;;;;5.57;1.40;;;18.90;95.90;;;;;;6244940;22;20447;-83
2022/09/16 10:47:32;;;;;;;4.65;1.38;;;19.00;96.20;;;;;;6247267;22;20025;-84
2022/09/16 10:50:06;;;;;;;7.70;1.40;;;19.20;96.40;;;;;;6244595;22;20031;-83
2022/09/16 10:52:44;;;;;;;7.03;1.75;;;19.50;96.40;;;;;;6246257;22;20739;-84
2022/09/16 10:55:23;;;;;;;5.35;1.40;;;19.80;97.10;;;;;;6247033;22;20072;-83
2022/09/16 10:57:50;;;;;;;8.30;1.83;;;20.10;96.40;;;;;;6248029;22;20078;-85
2022/09/16 11:00:23;;;;;;;5.03;1.20;;;19.70;96.40;;;;;;6244747;22;20728;-84
2022/09/16 11:03:17;;;;;;;9.18;1.70;;;19.50;96.90;;;;;;6270058;22;20019;-85
2022/09/16 11:06:16;;;;;;;6.35;1.40;;;19.40;97.10;;;;;;6246912;22;20026;-83
2022/09/16 11:09:04;;;;;;;5.68;1.23;;;19.40;96.60;;;;;;6247270;22;20015;-83
2022/09/16 11:11:48;;;;;;;5.63;1.35;;;19.50;96.20;;;;;;6250408;22;20011;-83
2022/09/16 11:14:47;;;;;;;6.70;1.40;;;19.80;95.70;;;;;;6272423;22;20012;-83
2022/09/16 11:17:50;;;;;;;5.95;1.40;;;19.70;96.10;;;;;;6272538;22;20050;-84
2022/09/16 11:20:34;;;;;;;7.50;1.58;;;19.40;95.90;;;;;;6245770;22;20076;-84
2022/09/16 11:23:25;;;;;;;5.75;1.88;;;19.40;94.70;;;;;;6245519;22;20054;-84
2022/09/16 11:26:03;;;;;;;5.35;1.73;;;19.80;94.90;;;;;;6272414;22;20356;-85
2022/09/16 11:28:40;;;;;;;8.27;1.40;;;20.10;93.70;;;;;;6245965;22;20046;-84
2022/09/16 11:31:39;;;;;;;5.00;1.45;;;20.20;94.60;;;;;;6245697;22;20015;-84
2022/09/16 11:34:26;;;;;;;5.03;1.67;;;20.50;93.70;;;;;;6272399;22;20019;-84
2022/09/16 11:37:23;;;;;;;8.55;1.48;;;20.40;93.50;;;;;;6272245;22;20347;-84
2022/09/16 11:40:22;;;;;;;7.18;1.50;;;20.40;94.10;;;;;;6248050;22;20022;-83
2022/09/16 11:43:14;;;;;;;7.13;1.90;;;20.50;94.90;;;;;;6272953;22;20041;-82
2022/09/16 11:46:22;;;;;;;6.70;1.70;;;20.30;95.40;;;;;;6247194;22;20019;-86
2022/09/16 11:49:12;;;;;;;7.18;1.50;;;20.10;95.00;;;;;;6226781;22;20484;-85
2022/09/16 11:52:15;;;;;;;5.88;1.52;;;20.20;94.90;;;;;;6249603;22;20023;-85
2022/09/16 11:54:46;;;;;;;8.80;1.45;;;20.00;93.60;;;;;;6250268;22;20442;-84
2022/09/16 11:57:41;;;;;;;6.72;1.52;;;20.10;93.70;;;;;;6248393;22;20030;-85
2022/09/16 12:00:43;;;;;;;4.93;1.70;;;20.10;93.30;;;;;;6258071;22;20030;-85
2022/09/16 12:03:43;;;;;;;6.95;1.75;;;20.30;93.30;;;;;;6195179;22;20019;-84
2022/09/16 12:06:22;;;;;;;6.22;1.70;;;20.60;93.00;;;;;;6218141;22;20020;-85
2022/09/16 12:08:58;;;;;;;6.72;1.80;;;20.80;92.30;;;;;;6218246;22;20094;-84
2022/09/16 12:11:32;;;;;;;;;;;20.70;92.80;;;;;;6244336;22;20095;-84
2022/09/16 12:14:10;;;;;;;6.05;1.50;;;19.80;91.60;;;;;;6217111;22;19919;-85
2022/09/16 12:17:00;;;;;;;8.50;1.60;;;20.20;92.50;;;;;;6218924;22;20447;-85
2022/09/16 12:20:06;;;;;;;8.38;1.92;;;20.30;93.10;;;;;;6218553;22;20469;-84
2022/09/16 12:22:48;;;;;;;7.63;1.87;;;20.40;93.30;;;;;;6206486;22;20030;-85
2022/09/16 12:25:27;;;;;;;10.32;2.40;;;20.40;93.30;;;;;;6242909;22;20452;-85
2022/09/16 12:28:21;;;;;;;8.43;2.08;;;20.50;93.90;;;;;;6218342;22;20028;-85
2022/09/16 12:31:12;;;;;;;12.27;2.20;;;20.50;93.80;;;;;;6218107;22;20123;-85
2022/09/16 12:33:46;;;;;;;9.27;1.83;;;20.60;93.40;;;;;;6218855;22;20069;-84
2022/09/16 12:36:17;;;;;;;8.57;1.77;;;20.40;93.90;;;;;;6217792;22;20316;-84
2022/09/16 12:39:05;;;;;;;7.05;1.77;;;20.20;94.30;;;;;;6217440;22;20019;-85
2022/09/16 12:41:31;;;;;;;9.48;1.80;;;20.20;94.10;;;;;;6217239;22;20027;-87
2022/09/16 12:44:17;;;;;;;6.38;1.60;;;19.60;94.20;;;;;;6220234;22;20513;-86
2022/09/16 12:46:57;;;;;;;5.72;1.80;;;19.60;93.70;;;;;;6218999;22;20043;-86
2022/09/16 12:49:35;;;;;;;8.65;2.00;;;20.50;93.70;;;;;;6219768;22;20023;-85
2022/09/16 12:52:28;;;;;;;6.03;1.60;;;19.40;93.70;;;;;;6218481;22;20047;-86
2022/09/16 12:55:22;;;;;;;8.82;1.90;;;19.50;93.90;;;;;;6245535;22;20487;-85
2022/09/16 12:58:09;;;;;;;8.40;1.88;;;19.30;94.30;;;;;;6220352;22;20055;-85
2022/09/16 13:00:41;;;;;;;7.65;1.80;;;19.20;94.10;;;;;;6225663;22;20019;-85
2022/09/16 13:03:25;;;;;;;9.52;1.90;;;19.30;94.50;;;;;;6276246;22;20057;-85
2022/09/16 13:05:53;;;;;;;11.85;2.15;;;19.30;94.10;;;;;;6248327;22;20448;-85
2022/09/16 13:08:31;;;;;;;9.30;2.22;;;19.40;93.80;;;;;;6249966;22;20046;-85
2022/09/16 13:11:04;;;;;;;8.13;2.10;;;19.50;93.80;;;;;;6276466;22;20021;-85
2022/09/16 13:13:41;;;;;;;8.90;1.70;;;19.50;93.60;;;;;;6251228;22;20023;-85
2022/09/16 13:16:08;;;;;;;7.95;2.25;;;19.70;93.00;;;;;;6276372;22;20023;-85
2022/09/16 13:18:43;;;;;;;9.45;1.92;;;19.80;93.10;;;;;;6251776;22;20016;-86
2022/09/16 13:21:26;;;;;;;7.60;2.35;;;19.90;92.80;;;;;;6249904;22;20571;-86
2022/09/16 13:24:21;;;;;;;8.95;2.10;;;20.20;93.00;;;;;;6250879;22;20023;-85
2022/09/16 13:26:49;;;;;;;10.27;3.13;;;20.30;93.10;;;;;;6276322;22;20027;-84
2022/09/16 13:29:47;;;;;;;9.52;2.30;;;20.30;93.00;;;;;;6225132;22;20023;-85
2022/09/16 13:32:51;;;;;;;7.80;1.70;;;20.00;92.40;;;;;;6278406;22;20449;-89